createdAt,value
2018-05-27T09:07:31.271Z,23.78
2018-05-27T09:09:58.830Z,23.82
2018-05-27T09:12:26.560Z,24.22
2018-05-27T09:14:54.135Z,24.19
2018-05-27T09:17:22.262Z,24.60
2018-05-27T09:19:49.814Z,24.73
2018-05-27T09:22:17.369Z,24.52
2018-05-27T09:24:44.889Z,24.37
2018-05-27T09:27:13.698Z,24.84
2018-05-27T09:29:41.204Z,24.16
2018-05-27T09:32:08.748Z,24.55
2018-05-27T09:34:36.286Z,24.69
2018-05-27T09:37:03.867Z,24.37
2018-05-27T09:39:31.440Z,24.06
2018-05-27T09:41:59.008Z,24.22
2018-05-27T09:44:26.600Z,24.35
2018-05-27T09:46:54.111Z,24.50
2018-05-27T09:49:21.632Z,25.02
2018-05-27T09:51:49.148Z,24.58
2018-05-27T09:54:16.657Z,24.64
2018-05-27T09:56:44.135Z,24.93
2018-05-27T09:59:11.830Z,24.94
2018-05-27T10:01:39.357Z,24.79
2018-05-27T10:04:07.049Z,25.28
2018-05-27T10:06:34.671Z,25.41
2018-05-27T10:09:02.197Z,25.23
2018-05-27T10:11:29.869Z,25.07
2018-05-27T10:13:57.493Z,25.23
2018-05-27T10:16:25.440Z,25.24
2018-05-27T10:18:53.128Z,25.59
2018-05-27T10:21:20.680Z,25.53
2018-05-27T10:23:48.278Z,25.16
2018-05-27T10:26:15.831Z,25.19
2018-05-27T10:28:43.915Z,25.15
2018-05-27T10:31:11.470Z,25.05
2018-05-27T10:33:38.963Z,25.12
2018-05-27T10:36:06.967Z,25.13
2018-05-27T10:38:34.840Z,25.08
2018-05-27T10:41:02.474Z,25.52
2018-05-27T10:43:29.982Z,25.73
2018-05-27T10:45:57.528Z,25.40
2018-05-27T10:48:25.226Z,25.07
2018-05-27T10:50:53.584Z,25.30
2018-05-27T10:53:21.125Z,25.65
2018-05-27T10:55:50.127Z,25.69
2018-05-27T10:58:17.715Z,25.92
2018-05-27T11:00:46.156Z,25.52
2018-05-27T11:03:14.636Z,25.75
2018-05-27T11:05:42.243Z,25.78
2018-05-27T11:08:09.870Z,25.36
2018-05-27T11:10:37.543Z,25.72
2018-05-27T11:13:06.020Z,25.43
2018-05-27T11:15:33.700Z,25.76
2018-05-27T11:18:01.253Z,25.74
2018-05-27T11:20:28.797Z,25.84
2018-05-27T11:22:56.285Z,26.21
2018-05-27T11:25:23.842Z,26.11
2018-05-27T11:27:51.347Z,25.90
2018-05-27T11:30:18.875Z,26.13
2018-05-27T11:32:46.382Z,25.89
2018-05-27T11:35:13.890Z,25.90
2018-05-27T11:37:41.386Z,26.03
2018-05-27T11:40:08.880Z,26.01
2018-05-27T11:42:36.403Z,26.51
2018-05-27T11:45:03.917Z,26.40
2018-05-27T11:47:31.461Z,26.34
2018-05-27T11:49:58.984Z,26.24
2018-05-27T11:52:26.629Z,26.19
2018-05-27T11:54:54.187Z,26.59
2018-05-27T11:57:21.662Z,26.71
2018-05-27T11:59:49.164Z,26.60
2018-05-27T12:02:16.859Z,26.61
2018-05-27T12:04:44.379Z,26.67
2018-05-27T12:07:11.970Z,26.42
2018-05-27T12:09:39.646Z,26.57
2018-05-27T12:12:07.043Z,26.46
2018-05-27T12:14:34.564Z,26.55
2018-05-27T12:17:02.122Z,25.97
2018-05-27T12:19:29.655Z,26.50
2018-05-27T12:21:57.238Z,26.78
2018-05-27T12:24:24.740Z,26.49
2018-05-27T12:26:52.270Z,26.32
2018-05-27T12:29:19.852Z,26.61
2018-05-27T12:31:47.411Z,26.90
2018-05-27T12:34:14.970Z,26.87
2018-05-27T12:36:42.562Z,26.71
2018-05-27T12:39:10.148Z,26.70
2018-05-27T12:41:37.651Z,26.64
2018-05-27T12:44:05.215Z,26.55
2018-05-27T12:46:32.768Z,26.81
2018-05-27T12:49:00.293Z,26.89
2018-05-27T12:51:27.937Z,26.93
2018-05-27T12:53:55.583Z,26.76
2018-05-27T12:56:23.107Z,26.69
2018-05-27T12:58:50.607Z,26.68
2018-05-27T13:01:18.084Z,26.63
2018-05-27T13:03:45.614Z,26.89
2018-05-27T13:06:13.281Z,26.99
2018-05-27T13:08:41.038Z,27.03
2018-05-27T13:11:09.304Z,26.95
2018-05-27T13:16:19.532Z,26.90
2018-05-27T13:18:47.006Z,27.03
2018-05-27T13:21:14.566Z,27.24
2018-05-27T13:23:42.458Z,27.22
2018-05-27T13:26:10.222Z,27.40
2018-05-27T13:28:37.890Z,27.36
2018-05-27T13:31:08.789Z,27.32
2018-05-27T13:33:36.447Z,27.25
2018-05-27T13:36:04.455Z,27.30
2018-05-27T13:38:32.163Z,27.36
2018-05-27T13:40:59.771Z,27.10
2018-05-27T13:43:27.447Z,27.25
2018-05-27T13:45:55.112Z,27.27
2018-05-27T13:48:22.807Z,27.32
2018-05-27T13:50:51.454Z,27.18
2018-05-27T13:53:19.133Z,27.36
2018-05-27T13:55:46.959Z,27.21
2018-05-27T13:58:14.748Z,27.19
2018-05-27T14:00:42.684Z,27.34
2018-05-27T14:03:10.280Z,27.42
2018-05-27T14:05:37.980Z,27.22
2018-05-27T14:08:05.612Z,27.28
2018-05-27T14:10:33.405Z,27.32
2018-05-27T14:13:01.011Z,27.24
2018-05-27T14:15:28.641Z,27.20
2018-05-27T14:17:56.271Z,27.40
2018-05-27T14:20:24.005Z,27.45
2018-05-27T14:22:51.665Z,27.30
2018-05-27T14:25:19.255Z,27.35
2018-05-27T14:27:46.769Z,27.37
2018-05-27T14:30:14.287Z,27.21
2018-05-27T14:32:41.799Z,27.10
2018-05-27T14:35:09.349Z,27.08
2018-05-27T14:37:36.899Z,27.06
2018-05-27T14:40:04.471Z,27.11
2018-05-27T14:42:31.984Z,27.12
2018-05-27T14:44:59.479Z,26.97
2018-05-27T14:47:26.995Z,27.27
2018-05-27T14:49:54.603Z,27.21
2018-05-27T14:52:22.189Z,27.47
2018-05-27T14:54:49.699Z,27.45
2018-05-27T14:57:17.257Z,27.31
2018-05-27T14:59:44.846Z,27.41
2018-05-27T15:02:12.498Z,27.46
2018-05-27T15:04:40.033Z,27.46
2018-05-27T15:07:07.548Z,27.40
2018-05-27T15:09:36.044Z,27.32
2018-05-27T15:12:03.576Z,27.49
2018-05-27T15:14:32.021Z,27.57
2018-05-27T15:17:00.091Z,27.50
2018-05-27T15:19:27.654Z,27.39
2018-05-27T15:21:55.604Z,27.35
2018-05-27T15:24:23.682Z,27.28
2018-05-27T15:27:00.070Z,27.21
2018-05-27T15:29:27.764Z,27.47
2018-05-27T15:31:55.412Z,27.41
2018-05-27T15:34:23.328Z,27.39
2018-05-27T15:36:50.913Z,27.15
2018-05-27T15:39:18.588Z,27.25
2018-05-27T15:41:46.179Z,27.14
2018-05-27T15:44:13.800Z,27.29
2018-05-27T15:46:41.395Z,27.39
2018-05-27T15:49:09.092Z,27.33
2018-05-27T15:51:36.771Z,27.40
2018-05-27T15:54:04.439Z,27.42
2018-05-27T15:56:32.034Z,27.20
2018-05-27T15:58:59.635Z,27.17
2018-05-27T16:01:27.131Z,27.27
2018-05-27T16:03:54.660Z,27.13
2018-05-27T16:06:22.140Z,27.18
2018-05-27T16:08:49.736Z,27.07
2018-05-27T16:11:17.244Z,27.01
2018-05-27T16:13:44.863Z,27.01
2018-05-27T16:16:12.384Z,27.12
2018-05-27T16:18:39.929Z,27.08
2018-05-27T16:21:07.493Z,27.19
2018-05-27T16:23:35.021Z,27.03
2018-05-27T16:26:02.592Z,27.02
2018-05-27T16:28:30.247Z,27.12
2018-05-27T16:30:57.818Z,27.07
2018-05-27T16:33:25.365Z,27.03
2018-05-27T16:35:52.979Z,27.00
2018-05-27T16:38:20.502Z,27.01
2018-05-27T16:40:48.073Z,27.09
2018-05-27T16:43:15.608Z,27.06
2018-05-27T16:45:43.142Z,27.11
2018-05-27T16:48:10.706Z,27.03
2018-05-27T16:50:38.224Z,26.95
2018-05-27T16:53:05.725Z,26.94
2018-05-27T16:55:33.212Z,26.85
2018-05-27T16:58:00.742Z,26.94
2018-05-27T17:00:28.297Z,26.85
2018-05-27T17:02:55.818Z,26.91
2018-05-27T17:05:23.858Z,26.87
2018-05-27T17:07:51.517Z,26.95
2018-05-27T17:10:19.094Z,26.89
2018-05-27T17:12:46.604Z,26.77
2018-05-27T17:15:14.121Z,26.71
2018-05-27T17:17:41.710Z,26.57
2018-05-27T17:20:09.256Z,26.48
2018-05-27T17:22:36.769Z,26.37
2018-05-27T17:25:04.431Z,26.26
2018-05-27T17:27:32.069Z,26.26
2018-05-27T17:29:59.576Z,26.08
2018-05-27T17:32:28.086Z,26.03
2018-05-27T17:34:55.605Z,25.98
2018-05-27T17:37:23.121Z,25.87
2018-05-27T17:39:50.687Z,25.81
2018-05-27T17:42:18.190Z,25.70
2018-05-27T17:44:45.700Z,25.69
2018-05-27T17:47:13.203Z,25.69
2018-05-27T17:49:40.779Z,25.57
2018-05-27T17:52:08.338Z,25.49
2018-05-27T17:54:36.537Z,25.48
2018-05-27T17:57:04.853Z,25.48
2018-05-27T17:59:32.479Z,25.36
2018-05-27T18:02:00.047Z,25.33
2018-05-27T18:04:27.605Z,25.29
2018-05-27T18:06:55.200Z,25.17
2018-05-27T18:09:22.818Z,25.17
2018-05-27T18:11:50.378Z,25.19
2018-05-27T18:14:17.899Z,25.22
2018-05-27T18:16:45.430Z,25.18
2018-05-27T18:19:13.062Z,25.18
2018-05-27T18:21:40.639Z,25.22
2018-05-27T18:24:08.201Z,25.08
2018-05-27T18:26:35.875Z,25.00
2018-05-27T18:29:03.400Z,24.90
2018-05-27T18:31:30.892Z,24.82
2018-05-27T18:33:58.386Z,24.77
2018-05-27T18:36:31.533Z,24.85
2018-05-27T18:38:59.137Z,24.79
2018-05-27T18:41:26.649Z,24.71
2018-05-27T18:43:54.174Z,24.67
2018-05-27T18:46:21.732Z,24.63
2018-05-27T18:48:49.231Z,24.59
2018-05-27T18:51:16.733Z,24.66
2018-05-27T18:53:44.279Z,24.55
2018-05-27T18:56:11.761Z,24.65
2018-05-27T18:58:39.258Z,24.64
2018-05-27T19:01:06.763Z,24.55
2018-05-27T19:03:34.336Z,24.48
2018-05-27T19:06:01.879Z,24.37
2018-05-27T19:08:29.428Z,24.35
2018-05-27T19:10:56.910Z,24.30
2018-05-27T19:13:24.462Z,24.22
2018-05-27T19:15:52.010Z,24.16
2018-05-27T19:18:19.552Z,24.09
2018-05-27T19:20:47.126Z,24.05
2018-05-27T19:23:14.667Z,24.00
2018-05-27T19:25:42.232Z,24.04
2018-05-27T19:28:09.823Z,23.95
2018-05-27T19:30:37.358Z,23.88
2018-05-27T19:33:04.863Z,23.78
2018-05-27T19:35:32.456Z,23.73
2018-05-27T19:38:00.014Z,23.75
2018-05-27T19:40:27.546Z,23.71
2018-05-27T19:42:55.792Z,23.70
2018-05-27T19:45:23.367Z,23.73
2018-05-27T19:47:50.875Z,23.81
2018-05-27T19:50:18.420Z,23.74
2018-05-27T19:52:47.016Z,23.73
2018-05-27T19:55:14.944Z,23.70
2018-05-27T19:57:42.433Z,23.73
2018-05-27T20:00:10.147Z,23.67
2018-05-27T20:02:37.663Z,23.57
2018-05-27T20:05:05.173Z,23.55
2018-05-27T20:07:33.407Z,23.54
2018-05-27T20:10:00.962Z,23.52
2018-05-27T20:12:28.487Z,23.50
2018-05-27T20:14:56.044Z,23.39
2018-05-27T20:17:23.539Z,23.33
2018-05-27T20:19:51.043Z,23.27
2018-05-27T20:22:18.622Z,23.26
2018-05-27T20:24:46.110Z,23.24
2018-05-27T20:27:13.668Z,23.20
2018-05-27T20:29:42.128Z,23.18
2018-05-27T20:32:09.672Z,23.22
2018-05-27T20:34:37.235Z,23.18
2018-05-27T20:37:04.751Z,23.20
2018-05-27T20:39:32.289Z,23.08
2018-05-27T20:41:59.812Z,23.01
2018-05-27T20:44:27.409Z,23.05
2018-05-27T20:46:54.932Z,23.10
2018-05-27T20:49:22.404Z,23.00
2018-05-27T20:51:49.894Z,22.96
2018-05-27T20:54:17.428Z,22.92
2018-05-27T20:56:44.991Z,22.79
2018-05-27T20:59:12.512Z,22.74
2018-05-27T21:01:40.212Z,22.69
2018-05-27T21:04:07.843Z,22.66
2018-05-27T21:06:35.335Z,22.65
2018-05-27T21:09:03.917Z,22.65
2018-05-27T21:11:32.076Z,22.63
2018-05-27T21:13:59.607Z,22.60
2018-05-27T21:16:27.128Z,22.57
2018-05-27T21:18:54.626Z,22.47
2018-05-27T21:21:22.173Z,22.48
2018-05-27T21:23:49.736Z,22.37
2018-05-27T21:26:17.253Z,22.30
2018-05-27T21:28:44.771Z,22.33
2018-05-27T21:31:12.294Z,22.22
2018-05-27T21:33:39.787Z,22.19
2018-05-27T21:36:07.329Z,22.13
2018-05-27T21:38:34.804Z,22.16
2018-05-27T21:41:02.343Z,22.09
2018-05-27T21:43:29.902Z,22.19
2018-05-27T21:45:57.421Z,22.14
2018-05-27T21:48:24.998Z,22.07
2018-05-27T21:50:52.570Z,21.88
2018-05-27T21:53:20.094Z,21.81
2018-05-27T21:55:47.619Z,21.67
2018-05-27T21:58:15.134Z,21.64
2018-05-27T22:00:42.667Z,21.62
2018-05-27T22:03:10.170Z,21.64
2018-05-27T22:05:37.698Z,21.72
2018-05-27T22:08:05.210Z,21.64
2018-05-27T22:10:32.770Z,21.68
2018-05-27T22:13:00.390Z,21.63
2018-05-27T22:15:27.881Z,21.50
2018-05-27T22:17:56.367Z,21.43
2018-05-27T22:20:23.920Z,21.22
2018-05-27T22:22:51.428Z,21.13
2018-05-27T22:25:18.958Z,21.09
2018-05-27T22:27:46.473Z,21.06
2018-05-27T22:30:14.018Z,21.03
2018-05-27T22:32:41.556Z,21.17
2018-05-27T22:35:09.106Z,21.21
2018-05-27T22:37:36.693Z,21.21
2018-05-27T22:40:04.261Z,21.24
2018-05-27T22:42:31.811Z,21.35
2018-05-27T22:44:59.366Z,21.19
2018-05-27T22:47:26.925Z,20.94
2018-05-27T22:49:54.504Z,20.81
2018-05-27T22:52:22.046Z,20.80
2018-05-27T22:54:49.593Z,20.75
2018-05-27T22:57:17.084Z,20.69
2018-05-27T22:59:44.627Z,20.65
2018-05-27T23:02:12.170Z,20.68
2018-05-27T23:07:36.617Z,20.69
2018-05-27T23:10:04.193Z,20.76
2018-05-27T23:12:31.895Z,20.77
2018-05-27T23:14:59.383Z,20.55
2018-05-27T23:17:26.966Z,20.53
2018-05-27T23:19:54.541Z,20.55
2018-05-27T23:22:22.052Z,20.49
2018-05-27T23:24:49.590Z,20.43
2018-05-27T23:27:17.102Z,20.36
2018-05-27T23:29:44.634Z,20.39
2018-05-27T23:32:12.169Z,20.34
2018-05-27T23:34:39.668Z,20.32
2018-05-27T23:37:07.197Z,20.37
2018-05-27T23:39:34.809Z,20.27
2018-05-27T23:42:02.324Z,20.23
2018-05-27T23:44:29.878Z,20.15
2018-05-27T23:46:57.434Z,20.15
2018-05-27T23:49:25.007Z,20.11
2018-05-27T23:51:52.550Z,20.12
2018-05-27T23:54:20.109Z,20.06
2018-05-27T23:56:47.606Z,20.01
2018-05-27T23:59:15.120Z,20.00
